sensor_id;sensor_type;location;lat;lon;timestamp;P1;durP1;ratioP1;P2;durP2;ratioP2
80123;SDS011;69433;48.642;9.142;2024-03-29T00:01:03;9.50;;;6.13;;
80123;SDS011;69433;48.642;9.142;2024-03-29T00:03:28;9.52;;;5.43;;
80123;SDS011;69433;48.642;9.142;2024-03-29T00:05:54;9.43;;;5.70;;
80123;SDS011;69433;48.642;9.142;2024-03-29T00:08:19;9.82;;;5.50;;
80123;SDS011;69433;48.642;9.142;2024-03-29T00:10:46;9.07;;;5.88;;
80123;SDS011;69433;48.642;9.142;2024-03-29T00:13:12;10.68;;;6.03;;
80123;SDS011;69433;48.642;9.142;2024-03-29T00:15:37;9.73;;;5.85;;
80123;SDS011;69433;48.642;9.142;2024-03-29T00:18:03;9.38;;;5.28;;
80123;SDS011;69433;48.642;9.142;2024-03-29T00:20:28;10.43;;;5.82;;
80123;SDS011;69433;48.642;9.142;2024-03-29T00:22:54;9.50;;;5.35;;
80123;SDS011;69433;48.642;9.142;2024-03-29T00:25:20;8.52;;;5.18;;
80123;SDS011;69433;48.642;9.142;2024-03-29T00:27:45;7.93;;;4.93;;
80123;SDS011;69433;48.642;9.142;2024-03-29T00:30:11;8.50;;;4.80;;
80123;SDS011;69433;48.642;9.142;2024-03-29T00:32:37;8.05;;;5.28;;
80123;SDS011;69433;48.642;9.142;2024-03-29T00:35:03;9.77;;;5.35;;
80123;SDS011;69433;48.642;9.142;2024-03-29T00:37:28;8.27;;;5.30;;
80123;SDS011;69433;48.642;9.142;2024-03-29T00:39:54;9.32;;;5.20;;
80123;SDS011;69433;48.642;9.142;2024-03-29T00:42:19;10.10;;;5.43;;
80123;SDS011;69433;48.642;9.142;2024-03-29T00:44:46;8.25;;;5.65;;
80123;SDS011;69433;48.642;9.142;2024-03-29T00:47:11;8.82;;;5.03;;
80123;SDS011;69433;48.642;9.142;2024-03-29T00:49:36;10.20;;;5.40;;
80123;SDS011;69433;48.642;9.142;2024-03-29T00:52:02;10.30;;;4.65;;
80123;SDS011;69433;48.642;9.142;2024-03-29T00:54:28;9.10;;;5.03;;
80123;SDS011;69433;48.642;9.142;2024-03-29T00:56:54;9.50;;;4.75;;
80123;SDS011;69433;48.642;9.142;2024-03-29T00:59:19;9.05;;;5.80;;
80123;SDS011;69433;48.642;9.142;2024-03-29T01:01:45;8.93;;;5.53;;
80123;SDS011;69433;48.642;9.142;2024-03-29T01:04:11;7.38;;;4.72;;
80123;SDS011;69433;48.642;9.142;2024-03-29T01:06:37;8.60;;;4.55;;
80123;SDS011;69433;48.642;9.142;2024-03-29T01:09:03;6.93;;;4.40;;
80123;SDS011;69433;48.642;9.142;2024-03-29T01:11:31;9.90;;;4.85;;
80123;SDS011;69433;48.642;9.142;2024-03-29T01:13:57;8.20;;;5.10;;
80123;SDS011;69433;48.642;9.142;2024-03-29T01:16:23;9.25;;;5.22;;
80123;SDS011;69433;48.642;9.142;2024-03-29T01:18:48;7.72;;;5.03;;
80123;SDS011;69433;48.642;9.142;2024-03-29T01:21:14;7.03;;;4.68;;
80123;SDS011;69433;48.642;9.142;2024-03-29T01:23:49;7.47;;;4.63;;
80123;SDS011;69433;48.642;9.142;2024-03-29T01:26:15;8.05;;;4.60;;
80123;SDS011;69433;48.642;9.142;2024-03-29T01:28:42;8.15;;;4.70;;
80123;SDS011;69433;48.642;9.142;2024-03-29T01:31:08;8.30;;;4.32;;
80123;SDS011;69433;48.642;9.142;2024-03-29T01:33:33;6.88;;;4.35;;
80123;SDS011;69433;48.642;9.142;2024-03-29T01:36:01;7.18;;;4.95;;
80123;SDS011;69433;48.642;9.142;2024-03-29T01:38:27;8.52;;;4.82;;
80123;SDS011;69433;48.642;9.142;2024-03-29T01:40:52;7.28;;;4.63;;
80123;SDS011;69433;48.642;9.142;2024-03-29T01:43:17;7.60;;;4.65;;
80123;SDS011;69433;48.642;9.142;2024-03-29T01:45:43;7.72;;;4.43;;
80123;SDS011;69433;48.642;9.142;2024-03-29T01:48:13;7.28;;;4.30;;
80123;SDS011;69433;48.642;9.142;2024-03-29T01:50:38;6.97;;;4.45;;
80123;SDS011;69433;48.642;9.142;2024-03-29T01:53:04;7.13;;;4.22;;
80123;SDS011;69433;48.642;9.142;2024-03-29T01:55:33;7.82;;;4.70;;
80123;SDS011;69433;48.642;9.142;2024-03-29T01:58:01;6.05;;;4.10;;
80123;SDS011;69433;48.642;9.142;2024-03-29T02:00:27;9.43;;;4.53;;
80123;SDS011;69433;48.642;9.142;2024-03-29T02:02:53;6.57;;;4.22;;
80123;SDS011;69433;48.642;9.142;2024-03-29T02:05:19;7.05;;;3.97;;
80123;SDS011;69433;48.642;9.142;2024-03-29T02:07:45;7.05;;;4.53;;
80123;SDS011;69433;48.642;9.142;2024-03-29T02:10:12;7.65;;;4.40;;
80123;SDS011;69433;48.642;9.142;2024-03-29T02:12:39;8.05;;;4.25;;
80123;SDS011;69433;48.642;9.142;2024-03-29T02:15:05;6.18;;;3.55;;
80123;SDS011;69433;48.642;9.142;2024-03-29T02:17:31;6.13;;;3.80;;
80123;SDS011;69433;48.642;9.142;2024-03-29T02:19:57;7.65;;;4.55;;
80123;SDS011;69433;48.642;9.142;2024-03-29T02:22:22;7.15;;;4.00;;
80123;SDS011;69433;48.642;9.142;2024-03-29T02:24:49;6.18;;;4.10;;
80123;SDS011;69433;48.642;9.142;2024-03-29T02:27:15;6.75;;;3.95;;
80123;SDS011;69433;48.642;9.142;2024-03-29T02:29:41;6.82;;;3.88;;
80123;SDS011;69433;48.642;9.142;2024-03-29T02:32:10;5.93;;;3.53;;
80123;SDS011;69433;48.642;9.142;2024-03-29T02:34:35;6.35;;;3.55;;
80123;SDS011;69433;48.642;9.142;2024-03-29T02:37:01;7.13;;;4.05;;
80123;SDS011;69433;48.642;9.142;2024-03-29T02:39:27;6.57;;;4.03;;
80123;SDS011;69433;48.642;9.142;2024-03-29T02:41:52;5.88;;;3.55;;
80123;SDS011;69433;48.642;9.142;2024-03-29T02:44:17;7.57;;;3.92;;
80123;SDS011;69433;48.642;9.142;2024-03-29T02:46:42;6.10;;;3.92;;
80123;SDS011;69433;48.642;9.142;2024-03-29T02:49:08;6.43;;;3.50;;
80123;SDS011;69433;48.642;9.142;2024-03-29T02:51:34;6.07;;;3.67;;
80123;SDS011;69433;48.642;9.142;2024-03-29T02:53:59;7.13;;;3.72;;
80123;SDS011;69433;48.642;9.142;2024-03-29T02:56:24;6.65;;;3.75;;
80123;SDS011;69433;48.642;9.142;2024-03-29T02:58:52;5.70;;;3.35;;
80123;SDS011;69433;48.642;9.142;2024-03-29T03:01:17;5.35;;;3.63;;
80123;SDS011;69433;48.642;9.142;2024-03-29T03:03:42;5.97;;;3.45;;
80123;SDS011;69433;48.642;9.142;2024-03-29T03:06:07;6.03;;;3.42;;
80123;SDS011;69433;48.642;9.142;2024-03-29T03:08:33;5.32;;;3.55;;
80123;SDS011;69433;48.642;9.142;2024-03-29T03:11:17;6.40;;;3.47;;
80123;SDS011;69433;48.642;9.142;2024-03-29T03:13:42;5.97;;;3.55;;
80123;SDS011;69433;48.642;9.142;2024-03-29T03:16:07;6.13;;;3.35;;
80123;SDS011;69433;48.642;9.142;2024-03-29T03:18:33;5.90;;;3.42;;
80123;SDS011;69433;48.642;9.142;2024-03-29T03:20:58;5.78;;;3.40;;
80123;SDS011;69433;48.642;9.142;2024-03-29T03:23:24;5.18;;;3.33;;
80123;SDS011;69433;48.642;9.142;2024-03-29T03:25:53;6.20;;;3.53;;
80123;SDS011;69433;48.642;9.142;2024-03-29T03:28:28;5.05;;;3.33;;
80123;SDS011;69433;48.642;9.142;2024-03-29T03:30:54;4.90;;;3.03;;
80123;SDS011;69433;48.642;9.142;2024-03-29T03:33:19;5.38;;;3.17;;
80123;SDS011;69433;48.642;9.142;2024-03-29T03:35:45;5.18;;;3.38;;
80123;SDS011;69433;48.642;9.142;2024-03-29T03:38:11;5.30;;;3.22;;
80123;SDS011;69433;48.642;9.142;2024-03-29T03:40:37;4.65;;;3.08;;
80123;SDS011;69433;48.642;9.142;2024-03-29T03:43:03;4.72;;;3.03;;
80123;SDS011;69433;48.642;9.142;2024-03-29T03:45:33;5.15;;;3.35;;
80123;SDS011;69433;48.642;9.142;2024-03-29T03:47:58;4.82;;;3.15;;
80123;SDS011;69433;48.642;9.142;2024-03-29T03:50:24;5.05;;;2.83;;
80123;SDS011;69433;48.642;9.142;2024-03-29T03:52:49;4.90;;;3.05;;
80123;SDS011;69433;48.642;9.142;2024-03-29T03:55:14;5.32;;;3.55;;
80123;SDS011;69433;48.642;9.142;2024-03-29T03:57:40;4.53;;;3.05;;
80123;SDS011;69433;48.642;9.142;2024-03-29T04:00:06;3.90;;;2.70;;
80123;SDS011;69433;48.642;9.142;2024-03-29T04:02:32;5.10;;;3.00;;
80123;SDS011;69433;48.642;9.142;2024-03-29T04:04:57;5.07;;;3.10;;
80123;SDS011;69433;48.642;9.142;2024-03-29T04:07:22;4.97;;;3.45;;
80123;SDS011;69433;48.642;9.142;2024-03-29T04:09:52;4.60;;;2.97;;
80123;SDS011;69433;48.642;9.142;2024-03-29T04:12:17;4.82;;;2.92;;
80123;SDS011;69433;48.642;9.142;2024-03-29T04:14:50;5.05;;;3.10;;
80123;SDS011;69433;48.642;9.142;2024-03-29T04:17:15;5.80;;;3.45;;
80123;SDS011;69433;48.642;9.142;2024-03-29T04:19:40;6.03;;;3.40;;
80123;SDS011;69433;48.642;9.142;2024-03-29T04:24:38;4.70;;;2.83;;
80123;SDS011;69433;48.642;9.142;2024-03-29T04:27:03;4.72;;;3.08;;
80123;SDS011;69433;48.642;9.142;2024-03-29T04:29:29;5.07;;;2.97;;
80123;SDS011;69433;48.642;9.142;2024-03-29T04:31:54;4.55;;;3.03;;
80123;SDS011;69433;48.642;9.142;2024-03-29T04:34:19;4.97;;;2.85;;
80123;SDS011;69433;48.642;9.142;2024-03-29T04:36:45;5.15;;;3.00;;
80123;SDS011;69433;48.642;9.142;2024-03-29T04:39:10;5.10;;;2.90;;
80123;SDS011;69433;48.642;9.142;2024-03-29T04:41:35;4.20;;;2.75;;
80123;SDS011;69433;48.642;9.142;2024-03-29T04:44:01;4.25;;;2.90;;
80123;SDS011;69433;48.642;9.142;2024-03-29T04:46:29;4.53;;;2.95;;
80123;SDS011;69433;48.642;9.142;2024-03-29T04:48:56;4.82;;;3.08;;
80123;SDS011;69433;48.642;9.142;2024-03-29T04:51:22;3.72;;;2.72;;
80123;SDS011;69433;48.642;9.142;2024-03-29T04:53:47;4.38;;;2.80;;
80123;SDS011;69433;48.642;9.142;2024-03-29T04:56:18;4.63;;;3.13;;
80123;SDS011;69433;48.642;9.142;2024-03-29T04:58:43;4.88;;;3.00;;
80123;SDS011;69433;48.642;9.142;2024-03-29T05:01:11;4.95;;;2.83;;
80123;SDS011;69433;48.642;9.142;2024-03-29T05:03:36;3.90;;;2.63;;
80123;SDS011;69433;48.642;9.142;2024-03-29T05:08:37;4.28;;;2.53;;
80123;SDS011;69433;48.642;9.142;2024-03-29T05:11:02;3.95;;;2.50;;
80123;SDS011;69433;48.642;9.142;2024-03-29T05:13:27;4.30;;;2.40;;
80123;SDS011;69433;48.642;9.142;2024-03-29T05:15:54;4.80;;;2.67;;
80123;SDS011;69433;48.642;9.142;2024-03-29T05:18:20;4.00;;;2.50;;
80123;SDS011;69433;48.642;9.142;2024-03-29T05:20:45;4.47;;;2.60;;
80123;SDS011;69433;48.642;9.142;2024-03-29T05:23:15;3.95;;;2.83;;
80123;SDS011;69433;48.642;9.142;2024-03-29T05:25:41;3.92;;;2.65;;
80123;SDS011;69433;48.642;9.142;2024-03-29T05:28:08;3.97;;;2.40;;
80123;SDS011;69433;48.642;9.142;2024-03-29T05:30:34;4.05;;;2.60;;
80123;SDS011;69433;48.642;9.142;2024-03-29T05:33:00;3.53;;;2.45;;
80123;SDS011;69433;48.642;9.142;2024-03-29T05:35:27;3.22;;;2.22;;
80123;SDS011;69433;48.642;9.142;2024-03-29T05:37:52;4.32;;;2.70;;
80123;SDS011;69433;48.642;9.142;2024-03-29T05:40:19;3.40;;;2.30;;
80123;SDS011;69433;48.642;9.142;2024-03-29T05:42:46;3.80;;;2.53;;
80123;SDS011;69433;48.642;9.142;2024-03-29T05:45:22;4.13;;;2.60;;
80123;SDS011;69433;48.642;9.142;2024-03-29T05:47:53;3.10;;;2.30;;
80123;SDS011;69433;48.642;9.142;2024-03-29T05:50:19;4.03;;;2.58;;
80123;SDS011;69433;48.642;9.142;2024-03-29T05:52:45;3.75;;;2.40;;
80123;SDS011;69433;48.642;9.142;2024-03-29T05:55:10;3.17;;;2.30;;
80123;SDS011;69433;48.642;9.142;2024-03-29T05:57:36;5.28;;;3.00;;
80123;SDS011;69433;48.642;9.142;2024-03-29T06:00:08;4.13;;;2.33;;
80123;SDS011;69433;48.642;9.142;2024-03-29T06:02:34;3.83;;;2.38;;
80123;SDS011;69433;48.642;9.142;2024-03-29T06:05:00;4.43;;;2.35;;
80123;SDS011;69433;48.642;9.142;2024-03-29T06:07:25;3.75;;;2.35;;
80123;SDS011;69433;48.642;9.142;2024-03-29T06:09:50;3.20;;;2.33;;
80123;SDS011;69433;48.642;9.142;2024-03-29T06:12:15;3.78;;;2.42;;
80123;SDS011;69433;48.642;9.142;2024-03-29T06:14:41;3.90;;;2.53;;
80123;SDS011;69433;48.642;9.142;2024-03-29T06:17:44;4.00;;;2.72;;
80123;SDS011;69433;48.642;9.142;2024-03-29T06:20:10;3.90;;;2.47;;
80123;SDS011;69433;48.642;9.142;2024-03-29T06:22:36;4.15;;;2.58;;
80123;SDS011;69433;48.642;9.142;2024-03-29T06:25:02;3.35;;;2.40;;
80123;SDS011;69433;48.642;9.142;2024-03-29T06:27:33;3.75;;;2.22;;
80123;SDS011;69433;48.642;9.142;2024-03-29T06:30:00;3.70;;;2.33;;
80123;SDS011;69433;48.642;9.142;2024-03-29T06:32:26;4.25;;;2.67;;
80123;SDS011;69433;48.642;9.142;2024-03-29T06:34:51;3.45;;;2.25;;
80123;SDS011;69433;48.642;9.142;2024-03-29T06:37:17;3.13;;;2.10;;
80123;SDS011;69433;48.642;9.142;2024-03-29T06:39:42;3.53;;;2.20;;
80123;SDS011;69433;48.642;9.142;2024-03-29T06:42:08;3.28;;;2.20;;
80123;SDS011;69433;48.642;9.142;2024-03-29T06:44:44;3.70;;;2.60;;
80123;SDS011;69433;48.642;9.142;2024-03-29T06:47:09;3.60;;;2.03;;
80123;SDS011;69433;48.642;9.142;2024-03-29T06:49:35;3.33;;;2.28;;
80123;SDS011;69433;48.642;9.142;2024-03-29T06:52:00;4.93;;;2.30;;
80123;SDS011;69433;48.642;9.142;2024-03-29T06:54:26;2.85;;;2.00;;
80123;SDS011;69433;48.642;9.142;2024-03-29T06:56:55;6.30;;;2.50;;
80123;SDS011;69433;48.642;9.142;2024-03-29T06:59:21;3.92;;;2.13;;
80123;SDS011;69433;48.642;9.142;2024-03-29T07:01:47;3.70;;;2.28;;
80123;SDS011;69433;48.642;9.142;2024-03-29T07:04:16;2.95;;;1.92;;
80123;SDS011;69433;48.642;9.142;2024-03-29T07:06:42;3.47;;;2.05;;
80123;SDS011;69433;48.642;9.142;2024-03-29T07:12:24;3.78;;;2.20;;
80123;SDS011;69433;48.642;9.142;2024-03-29T07:14:50;3.47;;;2.05;;
80123;SDS011;69433;48.642;9.142;2024-03-29T07:17:25;3.25;;;2.03;;
80123;SDS011;69433;48.642;9.142;2024-03-29T07:19:51;3.47;;;2.15;;
80123;SDS011;69433;48.642;9.142;2024-03-29T07:22:16;5.05;;;2.30;;
80123;SDS011;69433;48.642;9.142;2024-03-29T07:24:41;3.75;;;2.30;;
80123;SDS011;69433;48.642;9.142;2024-03-29T07:27:06;3.40;;;2.15;;
80123;SDS011;69433;48.642;9.142;2024-03-29T07:29:32;3.80;;;2.28;;
80123;SDS011;69433;48.642;9.142;2024-03-29T07:31:59;3.72;;;2.10;;
80123;SDS011;69433;48.642;9.142;2024-03-29T07:37:07;4.20;;;2.08;;
80123;SDS011;69433;48.642;9.142;2024-03-29T07:39:34;4.18;;;2.47;;
80123;SDS011;69433;48.642;9.142;2024-03-29T07:42:09;3.17;;;2.03;;
80123;SDS011;69433;48.642;9.142;2024-03-29T07:44:38;5.00;;;2.20;;
80123;SDS011;69433;48.642;9.142;2024-03-29T07:47:03;3.63;;;1.90;;
80123;SDS011;69433;48.642;9.142;2024-03-29T07:49:29;5.72;;;2.33;;
80123;SDS011;69433;48.642;9.142;2024-03-29T07:51:54;3.10;;;2.00;;
80123;SDS011;69433;48.642;9.142;2024-03-29T07:54:32;3.58;;;2.20;;
80123;SDS011;69433;48.642;9.142;2024-03-29T07:56:57;3.03;;;1.98;;
80123;SDS011;69433;48.642;9.142;2024-03-29T07:59:23;5.20;;;2.22;;
80123;SDS011;69433;48.642;9.142;2024-03-29T08:01:48;3.38;;;2.20;;
80123;SDS011;69433;48.642;9.142;2024-03-29T08:04:13;3.25;;;2.03;;
80123;SDS011;69433;48.642;9.142;2024-03-29T08:06:39;3.92;;;2.28;;
80123;SDS011;69433;48.642;9.142;2024-03-29T08:09:04;3.28;;;2.15;;
80123;SDS011;69433;48.642;9.142;2024-03-29T08:11:29;4.50;;;2.28;;
80123;SDS011;69433;48.642;9.142;2024-03-29T08:13:54;3.40;;;2.30;;
80123;SDS011;69433;48.642;9.142;2024-03-29T08:16:20;4.43;;;2.30;;
80123;SDS011;69433;48.642;9.142;2024-03-29T08:18:45;3.50;;;2.28;;
80123;SDS011;69433;48.642;9.142;2024-03-29T08:21:12;2.95;;;2.15;;
80123;SDS011;69433;48.642;9.142;2024-03-29T08:23:39;4.43;;;2.30;;
80123;SDS011;69433;48.642;9.142;2024-03-29T08:26:11;4.40;;;2.00;;
80123;SDS011;69433;48.642;9.142;2024-03-29T08:28:37;4.13;;;2.10;;
80123;SDS011;69433;48.642;9.142;2024-03-29T08:31:04;3.70;;;2.40;;
80123;SDS011;69433;48.642;9.142;2024-03-29T08:33:31;4.63;;;2.60;;
80123;SDS011;69433;48.642;9.142;2024-03-29T08:35:56;2.80;;;1.98;;
80123;SDS011;69433;48.642;9.142;2024-03-29T08:38:22;4.55;;;2.53;;
80123;SDS011;69433;48.642;9.142;2024-03-29T08:40:48;3.10;;;2.20;;
80123;SDS011;69433;48.642;9.142;2024-03-29T08:43:14;4.05;;;2.38;;
80123;SDS011;69433;48.642;9.142;2024-03-29T08:45:57;3.50;;;2.33;;
80123;SDS011;69433;48.642;9.142;2024-03-29T08:48:23;3.20;;;2.17;;
80123;SDS011;69433;48.642;9.142;2024-03-29T08:50:50;4.85;;;2.33;;
80123;SDS011;69433;48.642;9.142;2024-03-29T08:53:15;3.88;;;2.20;;
80123;SDS011;69433;48.642;9.142;2024-03-29T08:55:40;3.22;;;2.08;;
80123;SDS011;69433;48.642;9.142;2024-03-29T08:58:06;4.47;;;2.40;;
80123;SDS011;69433;48.642;9.142;2024-03-29T09:00:31;4.65;;;2.88;;
80123;SDS011;69433;48.642;9.142;2024-03-29T09:02:57;6.35;;;2.35;;
80123;SDS011;69433;48.642;9.142;2024-03-29T09:05:22;6.03;;;2.47;;
80123;SDS011;69433;48.642;9.142;2024-03-29T09:07:48;3.50;;;2.30;;
80123;SDS011;69433;48.642;9.142;2024-03-29T09:10:24;5.03;;;2.22;;
80123;SDS011;69433;48.642;9.142;2024-03-29T09:12:57;4.85;;;2.30;;
80123;SDS011;69433;48.642;9.142;2024-03-29T09:15:22;5.38;;;2.20;;
80123;SDS011;69433;48.642;9.142;2024-03-29T09:17:48;4.75;;;2.15;;
80123;SDS011;69433;48.642;9.142;2024-03-29T09:20:13;3.42;;;2.35;;
80123;SDS011;69433;48.642;9.142;2024-03-29T09:22:50;5.70;;;2.22;;
80123;SDS011;69433;48.642;9.142;2024-03-29T09:25:16;3.67;;;2.35;;
80123;SDS011;69433;48.642;9.142;2024-03-29T09:27:41;4.43;;;2.35;;
80123;SDS011;69433;48.642;9.142;2024-03-29T09:33:12;3.63;;;2.17;;
80123;SDS011;69433;48.642;9.142;2024-03-29T09:35:38;3.25;;;2.00;;
80123;SDS011;69433;48.642;9.142;2024-03-29T09:38:13;4.05;;;2.28;;
80123;SDS011;69433;48.642;9.142;2024-03-29T09:40:39;4.00;;;1.85;;
80123;SDS011;69433;48.642;9.142;2024-03-29T09:43:04;10.10;;;2.40;;
80123;SDS011;69433;48.642;9.142;2024-03-29T09:45:47;5.32;;;2.42;;
80123;SDS011;69433;48.642;9.142;2024-03-29T09:48:12;5.53;;;2.20;;
80123;SDS011;69433;48.642;9.142;2024-03-29T09:50:38;4.38;;;2.13;;
80123;SDS011;69433;48.642;9.142;2024-03-29T09:53:04;150.45;;;52.28;;
80123;SDS011;69433;48.642;9.142;2024-03-29T09:55:30;117.45;;;44.55;;
80123;SDS011;69433;48.642;9.142;2024-03-29T09:57:55;126.30;;;48.10;;
80123;SDS011;69433;48.642;9.142;2024-03-29T10:00:22;152.70;;;57.33;;
80123;SDS011;69433;48.642;9.142;2024-03-29T10:02:48;152.65;;;58.42;;
80123;SDS011;69433;48.642;9.142;2024-03-29T10:05:15;153.05;;;58.38;;
80123;SDS011;69433;48.642;9.142;2024-03-29T10:07:41;139.90;;;54.38;;
80123;SDS011;69433;48.642;9.142;2024-03-29T10:10:10;138.70;;;52.65;;
80123;SDS011;69433;48.642;9.142;2024-03-29T10:12:39;125.55;;;50.55;;
80123;SDS011;69433;48.642;9.142;2024-03-29T10:15:04;127.88;;;49.72;;
80123;SDS011;69433;48.642;9.142;2024-03-29T10:17:33;127.53;;;45.92;;
80123;SDS011;69433;48.642;9.142;2024-03-29T10:20:02;123.93;;;45.97;;
80123;SDS011;69433;48.642;9.142;2024-03-29T10:22:28;102.00;;;38.85;;
80123;SDS011;69433;48.642;9.142;2024-03-29T10:24:54;105.07;;;39.22;;
80123;SDS011;69433;48.642;9.142;2024-03-29T10:27:27;93.10;;;35.80;;
80123;SDS011;69433;48.642;9.142;2024-03-29T10:29:52;90.32;;;34.03;;
80123;SDS011;69433;48.642;9.142;2024-03-29T10:32:18;84.60;;;32.22;;
80123;SDS011;69433;48.642;9.142;2024-03-29T10:34:43;78.10;;;30.48;;
80123;SDS011;69433;48.642;9.142;2024-03-29T10:37:09;74.43;;;28.92;;
80123;SDS011;69433;48.642;9.142;2024-03-29T10:39:50;68.07;;;25.92;;
80123;SDS011;69433;48.642;9.142;2024-03-29T10:42:15;67.32;;;28.02;;
80123;SDS011;69433;48.642;9.142;2024-03-29T10:44:42;70.00;;;27.40;;
80123;SDS011;69433;48.642;9.142;2024-03-29T10:47:19;69.07;;;27.05;;
80123;SDS011;69433;48.642;9.142;2024-03-29T10:49:47;60.83;;;25.45;;
80123;SDS011;69433;48.642;9.142;2024-03-29T10:52:15;66.63;;;26.77;;
80123;SDS011;69433;48.642;9.142;2024-03-29T10:54:45;63.60;;;26.48;;
80123;SDS011;69433;48.642;9.142;2024-03-29T10:57:20;64.13;;;24.88;;
80123;SDS011;69433;48.642;9.142;2024-03-29T11:02:31;64.88;;;24.13;;
80123;SDS011;69433;48.642;9.142;2024-03-29T11:05:05;53.35;;;22.40;;
80123;SDS011;69433;48.642;9.142;2024-03-29T11:07:34;60.35;;;24.42;;
80123;SDS011;69433;48.642;9.142;2024-03-29T11:10:04;57.92;;;23.58;;
80123;SDS011;69433;48.642;9.142;2024-03-29T11:12:30;61.72;;;24.17;;
80123;SDS011;69433;48.642;9.142;2024-03-29T11:15:05;58.28;;;23.55;;
80123;SDS011;69433;48.642;9.142;2024-03-29T11:17:39;63.03;;;23.38;;
80123;SDS011;69433;48.642;9.142;2024-03-29T11:20:04;58.40;;;22.67;;
80123;SDS011;69433;48.642;9.142;2024-03-29T11:22:33;58.90;;;23.40;;
80123;SDS011;69433;48.642;9.142;2024-03-29T11:25:00;60.65;;;23.23;;
80123;SDS011;69433;48.642;9.142;2024-03-29T11:27:28;54.38;;;21.75;;
80123;SDS011;69433;48.642;9.142;2024-03-29T11:29:54;56.92;;;23.25;;
80123;SDS011;69433;48.642;9.142;2024-03-29T11:35:13;56.88;;;21.98;;
80123;SDS011;69433;48.642;9.142;2024-03-29T11:37:40;50.25;;;20.02;;
80123;SDS011;69433;48.642;9.142;2024-03-29T11:40:05;47.85;;;20.02;;
80123;SDS011;69433;48.642;9.142;2024-03-29T11:43:06;44.65;;;17.20;;
80123;SDS011;69433;48.642;9.142;2024-03-29T11:45:25;43.45;;;18.08;;
80123;SDS011;69433;48.642;9.142;2024-03-29T11:47:54;42.72;;;18.15;;
80123;SDS011;69433;48.642;9.142;2024-03-29T11:50:20;44.88;;;18.27;;
80123;SDS011;69433;48.642;9.142;2024-03-29T11:52:45;45.75;;;17.77;;
80123;SDS011;69433;48.642;9.142;2024-03-29T11:55:11;41.83;;;16.85;;
80123;SDS011;69433;48.642;9.142;2024-03-29T11:57:36;38.53;;;16.55;;
80123;SDS011;69433;48.642;9.142;2024-03-29T12:00:06;40.78;;;17.13;;
80123;SDS011;69433;48.642;9.142;2024-03-29T12:02:32;42.85;;;15.80;;
80123;SDS011;69433;48.642;9.142;2024-03-29T12:04:57;42.83;;;15.82;;
80123;SDS011;69433;48.642;9.142;2024-03-29T12:07:23;42.00;;;17.13;;
80123;SDS011;69433;48.642;9.142;2024-03-29T12:09:48;35.83;;;17.25;;
80123;SDS011;69433;48.642;9.142;2024-03-29T12:12:13;36.33;;;16.33;;
80123;SDS011;69433;48.642;9.142;2024-03-29T12:14:42;36.63;;;16.27;;
80123;SDS011;69433;48.642;9.142;2024-03-29T12:17:09;47.92;;;16.73;;
80123;SDS011;69433;48.642;9.142;2024-03-29T12:19:36;40.78;;;15.55;;
80123;SDS011;69433;48.642;9.142;2024-03-29T12:22:04;37.08;;;15.38;;
80123;SDS011;69433;48.642;9.142;2024-03-29T12:24:29;38.50;;;15.85;;
80123;SDS011;69433;48.642;9.142;2024-03-29T12:26:55;44.05;;;16.02;;
80123;SDS011;69433;48.642;9.142;2024-03-29T12:29:20;38.17;;;15.75;;
80123;SDS011;69433;48.642;9.142;2024-03-29T12:31:55;40.92;;;15.20;;
80123;SDS011;69433;48.642;9.142;2024-03-29T12:34:21;36.80;;;15.25;;
80123;SDS011;69433;48.642;9.142;2024-03-29T12:36:47;42.05;;;15.18;;
80123;SDS011;69433;48.642;9.142;2024-03-29T12:39:12;35.38;;;15.43;;
80123;SDS011;69433;48.642;9.142;2024-03-29T12:41:38;36.78;;;14.60;;
80123;SDS011;69433;48.642;9.142;2024-03-29T12:44:03;34.63;;;14.65;;
80123;SDS011;69433;48.642;9.142;2024-03-29T12:46:28;37.72;;;14.15;;
80123;SDS011;69433;48.642;9.142;2024-03-29T12:49:00;37.13;;;13.90;;
80123;SDS011;69433;48.642;9.142;2024-03-29T12:51:26;35.15;;;14.75;;
80123;SDS011;69433;48.642;9.142;2024-03-29T12:53:54;33.58;;;13.77;;
80123;SDS011;69433;48.642;9.142;2024-03-29T12:56:20;30.08;;;12.90;;
80123;SDS011;69433;48.642;9.142;2024-03-29T12:58:45;33.40;;;13.75;;
80123;SDS011;69433;48.642;9.142;2024-03-29T13:01:18;35.33;;;13.63;;
80123;SDS011;69433;48.642;9.142;2024-03-29T13:03:43;33.83;;;14.23;;
80123;SDS011;69433;48.642;9.142;2024-03-29T13:06:09;40.88;;;14.00;;
80123;SDS011;69433;48.642;9.142;2024-03-29T13:08:34;30.25;;;14.05;;
80123;SDS011;69433;48.642;9.142;2024-03-29T13:11:00;28.73;;;12.05;;
80123;SDS011;69433;48.642;9.142;2024-03-29T13:13:26;24.90;;;11.13;;
80123;SDS011;69433;48.642;9.142;2024-03-29T13:15:51;22.90;;;10.32;;
80123;SDS011;69433;48.642;9.142;2024-03-29T13:18:16;21.65;;;8.68;;
80123;SDS011;69433;48.642;9.142;2024-03-29T13:20:45;18.58;;;7.43;;
80123;SDS011;69433;48.642;9.142;2024-03-29T13:23:10;16.08;;;6.85;;
80123;SDS011;69433;48.642;9.142;2024-03-29T13:25:37;15.52;;;6.35;;
80123;SDS011;69433;48.642;9.142;2024-03-29T13:28:02;13.68;;;6.03;;
80123;SDS011;69433;48.642;9.142;2024-03-29T13:30:28;11.88;;;5.97;;
80123;SDS011;69433;48.642;9.142;2024-03-29T13:32:54;9.68;;;5.32;;
80123;SDS011;69433;48.642;9.142;2024-03-29T13:35:20;10.27;;;5.13;;
80123;SDS011;69433;48.642;9.142;2024-03-29T13:37:49;8.65;;;3.95;;
80123;SDS011;69433;48.642;9.142;2024-03-29T13:40:16;9.68;;;4.07;;
80123;SDS011;69433;48.642;9.142;2024-03-29T13:42:43;9.23;;;4.05;;
80123;SDS011;69433;48.642;9.142;2024-03-29T13:45:09;9.35;;;4.07;;
80123;SDS011;69433;48.642;9.142;2024-03-29T13:47:44;7.10;;;3.33;;
80123;SDS011;69433;48.642;9.142;2024-03-29T13:50:13;9.52;;;4.03;;
80123;SDS011;69433;48.642;9.142;2024-03-29T13:52:40;7.32;;;3.35;;
80123;SDS011;69433;48.642;9.142;2024-03-29T13:58:06;7.53;;;3.22;;
80123;SDS011;69433;48.642;9.142;2024-03-29T14:00:32;7.22;;;3.00;;
80123;SDS011;69433;48.642;9.142;2024-03-29T14:02:57;6.70;;;3.40;;
80123;SDS011;69433;48.642;9.142;2024-03-29T14:08:26;5.85;;;3.05;;
80123;SDS011;69433;48.642;9.142;2024-03-29T14:10:51;7.75;;;3.15;;
80123;SDS011;69433;48.642;9.142;2024-03-29T14:13:21;4.63;;;2.75;;
80123;SDS011;69433;48.642;9.142;2024-03-29T14:15:56;6.72;;;3.03;;
80123;SDS011;69433;48.642;9.142;2024-03-29T14:18:22;7.90;;;3.30;;
80123;SDS011;69433;48.642;9.142;2024-03-29T14:20:48;8.23;;;3.20;;
80123;SDS011;69433;48.642;9.142;2024-03-29T14:23:13;7.15;;;3.05;;
80123;SDS011;69433;48.642;9.142;2024-03-29T14:25:42;6.53;;;3.03;;
80123;SDS011;69433;48.642;9.142;2024-03-29T14:28:08;5.18;;;2.88;;
80123;SDS011;69433;48.642;9.142;2024-03-29T14:30:34;5.88;;;2.97;;
80123;SDS011;69433;48.642;9.142;2024-03-29T14:33:02;5.10;;;2.22;;
80123;SDS011;69433;48.642;9.142;2024-03-29T14:35:31;5.15;;;2.67;;
80123;SDS011;69433;48.642;9.142;2024-03-29T14:37:57;5.10;;;2.58;;
80123;SDS011;69433;48.642;9.142;2024-03-29T14:40:24;6.20;;;3.05;;
80123;SDS011;69433;48.642;9.142;2024-03-29T14:43:00;4.97;;;2.67;;
80123;SDS011;69433;48.642;9.142;2024-03-29T14:45:26;6.63;;;2.88;;
80123;SDS011;69433;48.642;9.142;2024-03-29T14:47:51;7.90;;;3.15;;
80123;SDS011;69433;48.642;9.142;2024-03-29T14:50:16;7.82;;;3.28;;
80123;SDS011;69433;48.642;9.142;2024-03-29T14:52:43;6.28;;;2.92;;
80123;SDS011;69433;48.642;9.142;2024-03-29T14:55:09;5.88;;;3.33;;
80123;SDS011;69433;48.642;9.142;2024-03-29T14:57:34;6.25;;;3.38;;
80123;SDS011;69433;48.642;9.142;2024-03-29T15:00:00;5.85;;;2.90;;
80123;SDS011;69433;48.642;9.142;2024-03-29T15:05:29;5.32;;;2.88;;
80123;SDS011;69433;48.642;9.142;2024-03-29T15:07:57;5.65;;;3.17;;